Time;durP1;ratioP1;P1;durP2;ratioP2;P2;SDS_P1;SDS_P2;PMS_P1;PMS_P2;Temp;Humidity;BMP_temperature;BMP_pressure;BME280_temperature;BME280_humidity;BME280_pressure;Samples;Min_cycle;Max_cycle;Signal;HPM_P1;HPM_P2
2022/12/15 00:38:43;;;;;;;35.00;15.80;;;;;;;-145.69;100.00;52739.47;5083920;28;20201;-78
2022/12/15 00:41:10;;;;;;;39.60;17.43;;;;;;;-145.69;100.00;52757.31;5093977;28;20209;-78
2022/12/15 00:43:37;;;;;;;38.23;17.53;;;;;;;-145.69;100.00;52733.53;5093592;28;20232;-78
2022/12/15 00:48:49;;;;;;;37.03;16.30;;;;;;;-145.69;100.00;52725.63;5091852;28;20228;-77
2022/12/15 00:51:17;;;;;;;34.00;14.97;;;;;;;-145.69;100.00;52717.69;5093459;28;20288;-78
2022/12/15 01:21:11;;;;;;;32.53;14.87;;;;;;;-145.69;100.00;52721.66;5092420;28;20603;-78
2022/12/15 01:23:40;;;;;;;32.47;14.57;;;;;;;-145.69;100.00;52727.59;5093273;28;20205;-78
2022/12/15 01:26:07;;;;;;;35.27;15.40;;;;;;;-145.69;100.00;52761.25;5092542;28;20660;-78
2022/12/15 01:28:33;;;;;;;33.67;14.43;;;;;;;-145.69;100.00;52775.13;5092994;28;20708;-78
2022/12/15 01:31:00;;;;;;;34.50;15.33;;;;;;;-145.69;100.00;52705.81;5092767;28;20293;-79
2022/12/15 01:33:27;;;;;;;35.93;14.70;;;;;;;-145.69;100.00;52769.19;5092932;28;20208;-78
2022/12/15 01:35:58;;;;;;;32.43;15.20;;;;;;;-145.69;100.00;52729.56;5092255;28;20324;-78
2022/12/15 01:38:26;;;;;;;31.37;13.77;;;;;;;-145.69;100.00;52737.50;5093151;28;20289;-78
2022/12/15 01:40:57;;;;;;;36.27;15.67;;;;;;;-145.69;100.00;52723.63;5093072;28;20201;-78
2022/12/15 01:43:27;;;;;;;30.90;15.70;;;;;;;-145.69;100.00;52735.50;5093068;28;20293;-79
2022/12/15 01:46:13;;;;;;;34.40;15.33;;;;;;;-145.69;100.00;52741.47;5092695;28;20198;-78
2022/12/15 01:48:44;;;;;;;32.00;15.63;;;;;;;-145.69;100.00;52739.47;5092680;28;20253;-78
2022/12/15 01:51:16;;;;;;;33.20;16.00;;;;;;;-145.69;100.00;52733.53;5092923;28;20315;-78
2022/12/15 01:53:47;;;;;;;31.73;14.50;;;;;;;-145.69;100.00;52747.41;5092932;28;20281;-78
2022/12/15 01:56:18;;;;;;;34.40;15.83;;;;;;;-145.69;100.00;52769.19;5092338;28;20197;-78
2022/12/15 01:58:53;;;;;;;33.17;15.47;;;;;;;-145.69;100.00;52777.09;5092600;28;20692;-78
2022/12/15 02:01:20;;;;;;;34.00;14.40;;;;;;;-145.69;100.00;52753.34;5094572;28;20204;-78
2022/12/15 02:03:47;;;;;;;37.03;15.57;;;;;;;-145.69;100.00;52719.66;5096870;28;20280;-78
2022/12/15 02:06:14;;;;;;;33.33;14.53;;;;;;;-145.69;100.00;52735.50;5086876;28;20201;-78
2022/12/15 02:08:45;;;;;;;30.80;14.97;;;;;;;-145.69;100.00;52757.31;5081198;28;20229;-78
2022/12/15 02:11:37;;;;;;;33.33;15.03;;;;;;;-145.69;100.00;52735.50;5076246;28;20203;-78
2022/12/15 02:14:06;;;;;;;35.33;14.77;;;;;;;-145.69;100.00;52741.47;5083938;28;20224;-78
2022/12/15 02:16:45;;;;;;;35.57;15.90;;;;;;;-145.69;100.00;52749.38;5096385;28;20285;-78
2022/12/15 02:19:29;;;;;;;29.97;14.30;;;;;;;-145.69;100.00;52733.53;5096105;28;20198;-78
2022/12/15 02:22:08;;;;;;;32.97;14.67;;;;;;;-145.69;100.00;52761.25;5096623;28;20205;-78
2022/12/15 02:25:07;;;;;;;33.40;14.90;;;;;;;-145.69;100.00;52761.25;5096092;28;20547;-78
2022/12/15 02:27:47;;;;;;;33.87;15.37;;;;;;;-145.69;100.00;52737.50;5092700;28;20198;-78
2022/12/15 02:30:25;;;;;;;35.30;15.13;;;;;;;-145.69;100.00;52789.00;5095953;28;20768;-78
2022/12/15 02:33:02;;;;;;;29.83;14.33;;;;;;;-145.69;100.00;52761.25;5096259;28;20193;-78
2022/12/15 02:35:37;;;;;;;33.83;15.47;;;;;;;-145.69;100.00;52727.59;5095646;28;20279;-78
2022/12/15 02:38:04;;;;;;;30.87;14.97;;;;;;;-145.69;100.00;52733.53;5096100;28;20201;-78
2022/12/15 02:40:30;;;;;;;31.20;14.70;;;;;;;-145.69;100.00;52713.72;5095687;28;20288;-79
2022/12/15 02:42:59;;;;;;;32.30;14.57;;;;;;;-145.69;100.00;52723.63;5096170;28;20198;-79
2022/12/15 02:45:33;;;;;;;31.93;15.03;;;;;;;-145.69;100.00;52733.53;5095434;28;20201;-78
2022/12/15 02:48:10;;;;;;;31.67;14.37;;;;;;;-145.69;100.00;52751.34;5096075;28;20206;-78
2022/12/15 02:50:58;;;;;;;33.47;14.60;;;;;;;-145.69;100.00;52757.31;5095705;28;20553;-78
2022/12/15 02:53:51;;;;;;;29.50;14.37;;;;;;;-145.69;100.00;52767.19;5095679;28;20645;-78
2022/12/15 02:56:25;;;;;;;32.83;15.10;;;;;;;-145.69;100.00;52727.59;5095953;28;20217;-78
2022/12/15 02:59:01;;;;;;;31.07;15.00;;;;;;;-145.69;100.00;52741.47;5095441;28;20205;-78
2022/12/15 03:01:34;;;;;;;31.83;15.43;;;;;;;-145.69;100.00;52745.41;5095969;28;20232;-78
2022/12/15 03:04:04;;;;;;;33.23;14.87;;;;;;;-145.69;100.00;52759.28;5095452;28;20205;-78
2022/12/15 03:06:30;;;;;;;32.70;15.23;;;;;;;-145.69;100.00;52733.53;5095535;28;20206;-78
2022/12/15 03:08:57;;;;;;;39.53;16.20;;;;;;;-145.69;100.00;52733.53;5095392;28;20237;-78
2022/12/15 03:11:24;;;;;;;32.63;15.03;;;;;;;-145.69;100.00;52745.41;5094908;28;20199;-78
2022/12/15 03:13:50;;;;;;;37.53;16.07;;;;;;;-145.69;100.00;52733.53;5095027;28;20190;-78
2022/12/15 03:16:17;;;;;;;39.67;15.87;;;;;;;-145.69;100.00;52741.47;5095632;28;20198;-78
2022/12/15 03:18:45;;;;;;;32.80;15.67;;;;;;;-145.69;100.00;52737.50;5094457;28;20209;-78
2022/12/15 03:21:11;;;;;;;31.00;14.90;;;;;;;-145.69;100.00;52757.31;5094974;28;20242;-78
2022/12/15 03:23:38;;;;;;;34.63;15.73;;;;;;;-145.69;100.00;52719.66;5095031;28;20198;-77
2022/12/15 03:26:05;;;;;;;35.67;17.10;;;;;;;-145.69;100.00;52757.31;5094837;28;20187;-77
2022/12/15 03:28:33;;;;;;;31.27;16.13;;;;;;;-145.69;100.00;52743.44;5095044;28;20198;-77
2022/12/15 03:31:00;;;;;;;34.27;15.90;;;;;;;-145.69;100.00;52745.41;5095248;28;20198;-78
2022/12/15 03:33:26;;;;;;;37.73;15.57;;;;;;;-145.69;100.00;52761.25;5095209;28;20198;-78
2022/12/15 03:35:54;;;;;;;32.47;14.97;;;;;;;-145.69;100.00;52755.31;5094616;28;20222;-77
2022/12/15 03:38:21;;;;;;;35.87;16.50;;;;;;;-145.69;100.00;52711.75;5095075;28;20198;-77
2022/12/15 03:40:47;;;;;;;31.97;14.77;;;;;;;-145.69;100.00;52733.53;5094442;28;20193;-77
2022/12/15 03:43:14;;;;;;;34.37;15.40;;;;;;;-145.69;100.00;52757.31;5095102;28;20202;-78
2022/12/15 03:45:40;;;;;;;31.37;14.93;;;;;;;-145.69;100.00;52733.53;5094467;28;20205;-78
2022/12/15 03:48:07;;;;;;;33.20;14.77;;;;;;;-145.69;100.00;52747.41;5094915;28;20224;-77
2022/12/15 03:50:33;;;;;;;34.37;14.97;;;;;;;-145.69;100.00;52743.44;5094624;28;20234;-78
2022/12/15 03:53:03;;;;;;;35.10;16.07;;;;;;;-145.69;100.00;52729.56;5094518;28;20202;-78
2022/12/15 03:55:30;;;;;;;34.17;14.63;;;;;;;-145.69;100.00;52741.47;5094326;28;20224;-78
2022/12/15 03:57:58;;;;;;;32.23;15.30;;;;;;;-145.69;100.00;52725.63;5094817;28;20202;-78
2022/12/15 04:00:25;;;;;;;31.97;14.90;;;;;;;-145.69;100.00;52735.50;5093913;28;20692;-77
2022/12/15 04:02:51;;;;;;;33.27;15.13;;;;;;;-145.69;100.00;52715.72;5094462;28;20202;-78
2022/12/15 04:05:20;;;;;;;33.10;15.17;;;;;;;-145.69;100.00;52709.78;5094082;28;20672;-78
2022/12/15 04:07:46;;;;;;;34.20;15.83;;;;;;;-145.69;100.00;52729.56;5094346;28;20226;-78
2022/12/15 04:10:15;;;;;;;32.13;15.57;;;;;;;-145.69;100.00;52761.25;5083045;28;20551;-78
2022/12/15 04:12:41;;;;;;;33.33;15.10;;;;;;;-145.69;100.00;52713.72;5074176;28;20198;-78
2022/12/15 04:15:09;;;;;;;33.80;15.50;;;;;;;-145.69;100.00;52729.56;5085797;28;20201;-78
2022/12/15 04:17:36;;;;;;;34.60;16.13;;;;;;;-145.69;100.00;52723.63;5094330;28;20206;-78
2022/12/15 04:20:09;;;;;;;34.43;14.67;;;;;;;-145.69;100.00;52733.53;5094176;28;20647;-79
2022/12/15 04:22:36;;;;;;;32.87;14.77;;;;;;;-145.69;100.00;52721.66;5093540;28;20229;-78
2022/12/15 05:33:35;;;;;;;38.20;16.73;;;;;;;-145.69;100.00;52731.56;5093002;28;20201;-77
2022/12/15 05:36:02;;;;;;;39.87;16.30;;;;;;;-145.69;100.00;52773.16;5092663;28;20328;-77
2022/12/15 05:38:28;;;;;;;36.23;15.20;;;;;;;-145.69;100.00;52745.41;5092862;28;20209;-77
2022/12/15 05:40:57;;;;;;;37.77;16.87;;;;;;;-145.69;100.00;52739.47;5092253;28;20198;-77
2022/12/15 05:43:24;;;;;;;36.23;15.63;;;;;;;-145.69;100.00;52709.78;5093081;28;20208;-77
2022/12/15 05:45:50;;;;;;;31.80;14.63;;;;;;;-145.69;100.00;52741.47;5092487;28;20552;-78
2022/12/15 05:48:17;;;;;;;34.50;14.70;;;;;;;-145.69;100.00;52729.56;5092852;28;20202;-77
2022/12/15 05:50:45;;;;;;;35.10;15.03;;;;;;;-145.69;100.00;52761.25;5092108;28;20221;-77
2022/12/15 05:53:11;;;;;;;34.20;15.00;;;;;;;-145.69;100.00;52733.53;5092903;28;20202;-77
2022/12/15 05:55:38;;;;;;;38.10;16.50;;;;;;;-145.69;100.00;52767.19;5092613;28;20541;-77
2022/12/15 05:58:04;;;;;;;34.90;15.73;;;;;;;-145.69;100.00;52759.28;5092652;28;20201;-77
2022/12/15 06:00:31;;;;;;;35.30;14.23;;;;;;;-145.69;100.00;52729.56;5092331;28;20194;-77
2022/12/15 06:02:58;;;;;;;36.57;15.53;;;;;;;-145.69;100.00;52755.31;5092919;28;20201;-77
2022/12/15 06:05:24;;;;;;;39.43;17.23;;;;;;;-145.69;100.00;52741.47;5092051;28;20194;-77
2022/12/15 06:07:52;;;;;;;42.03;19.20;;;;;;;-145.69;100.00;52705.81;5092783;28;20560;-77
2022/12/15 06:10:18;;;;;;;37.73;16.90;;;;;;;-145.69;100.00;52731.56;5090658;28;20217;-77
2022/12/15 06:12:45;;;;;;;41.70;17.80;;;;;;;-145.69;100.00;52735.50;5081890;28;20437;-77
2022/12/15 06:15:12;;;;;;;43.07;19.07;;;;;;;-145.69;100.00;52729.56;5092229;28;20232;-78
2022/12/15 06:17:38;;;;;;;50.17;20.23;;;;;;;-145.69;100.00;52737.50;5092721;28;20202;-77
2022/12/15 06:20:06;;;;;;;38.23;17.27;;;;;;;-145.69;100.00;52733.53;5092706;28;20209;-77
2022/12/15 06:22:33;;;;;;;38.77;16.83;;;;;;;-145.69;100.00;52763.25;5092271;28;20196;-78
2022/12/15 06:25:00;;;;;;;34.93;15.17;;;;;;;-145.69;100.00;52733.53;5092541;28;20202;-78
2022/12/15 06:27:27;;;;;;;34.67;16.00;;;;;;;-145.69;100.00;52755.31;5092322;28;20202;-77
2022/12/15 06:29:54;;;;;;;38.77;16.63;;;;;;;-145.69;100.00;52737.50;5092078;28;20222;-78
2022/12/15 06:32:20;;;;;;;38.37;17.27;;;;;;;-145.69;100.00;52751.34;5092440;28;20198;-77
2022/12/15 06:34:47;;;;;;;33.43;14.37;;;;;;;-145.69;100.00;52737.50;5092443;28;20210;-77
2022/12/15 06:37:14;;;;;;;30.90;14.73;;;;;;;-145.69;100.00;52761.25;5092400;28;20627;-78
2022/12/15 06:39:41;;;;;;;35.63;15.70;;;;;;;-145.69;100.00;52741.47;5092343;28;20271;-78
2022/12/15 06:42:09;;;;;;;40.87;18.17;;;;;;;-145.69;100.00;52729.56;5091975;28;20236;-77
2022/12/15 06:44:35;;;;;;;42.03;19.20;;;;;;;-145.69;100.00;52751.34;5092313;28;20190;-77
2022/12/15 06:47:02;;;;;;;39.87;18.50;;;;;;;-145.69;100.00;52753.34;5093561;28;20205;-77
2022/12/15 06:49:29;;;;;;;38.33;17.50;;;;;;;-145.69;100.00;52719.66;5095983;28;20248;-78
2022/12/15 06:51:55;;;;;;;36.73;17.00;;;;;;;-145.69;100.00;52749.38;5096003;28;20204;-78
2022/12/15 06:54:22;;;;;;;35.10;15.97;;;;;;;-145.69;100.00;52725.63;5095412;28;20193;-78
2022/12/15 06:56:48;;;;;;;33.43;15.17;;;;;;;-145.69;100.00;52729.56;5096259;28;20198;-78
2022/12/15 06:59:16;;;;;;;31.27;14.40;;;;;;;-145.69;100.00;52751.34;5095428;28;20198;-78
2022/12/15 07:01:43;;;;;;;39.90;17.10;;;;;;;-145.69;100.00;52785.03;5095856;28;20553;-78
2022/12/15 07:04:10;;;;;;;37.37;16.73;;;;;;;-145.69;100.00;52749.38;5095025;28;20676;-78
2022/12/15 07:06:37;;;;;;;38.50;16.83;;;;;;;-145.69;100.00;52729.56;5094997;28;20280;-78
2022/12/15 07:09:06;;;;;;;38.43;16.20;;;;;;;-145.69;100.00;52731.56;5095141;28;20687;-78
2022/12/15 07:11:32;;;;;;;35.50;16.27;;;;;;;-145.69;100.00;52753.34;5095488;28;20230;-78
2022/12/15 07:13:59;;;;;;;36.87;16.27;;;;;;;-145.69;100.00;52781.06;5095326;28;20194;-78
2022/12/15 07:16:26;;;;;;;43.03;17.33;;;;;;;-145.69;100.00;52721.66;5095269;28;20209;-78
2022/12/15 07:18:53;;;;;;;40.70;18.27;;;;;;;-145.69;100.00;52743.44;5094584;28;20194;-77
2022/12/15 07:21:19;;;;;;;44.30;17.60;;;;;;;-145.69;100.00;52765.22;5095198;28;20198;-78
2022/12/15 07:23:46;;;;;;;48.57;16.33;;;;;;;-145.69;100.00;52753.34;5095073;28;20194;-77
2022/12/15 07:26:13;;;;;;;40.63;17.40;;;;;;;-145.69;100.00;52753.34;5095180;28;20201;-77
2022/12/15 07:28:40;;;;;;;40.63;18.10;;;;;;;-145.69;100.00;52721.66;5094823;28;20285;-78
2022/12/15 07:31:09;;;;;;;41.30;17.33;;;;;;;-145.69;100.00;52727.59;5094784;28;20596;-78
2022/12/15 07:33:38;;;;;;;40.43;17.90;;;;;;;-145.69;100.00;52735.50;5094507;28;20194;-78
2022/12/15 07:36:07;;;;;;;44.23;17.97;;;;;;;-145.69;100.00;52745.41;5094615;28;20230;-78
2022/12/15 07:38:33;;;;;;;43.63;18.90;;;;;;;-145.69;100.00;52755.31;5094692;28;20627;-77
2022/12/15 07:41:01;;;;;;;48.10;21.43;;;;;;;-145.69;100.00;52731.56;5094569;28;20202;-78
2022/12/15 07:43:31;;;;;;;40.70;18.10;;;;;;;-145.69;100.00;52783.06;5094798;28;20216;-78
2022/12/15 07:45:57;;;;;;;43.40;18.80;;;;;;;-145.69;100.00;52757.31;5094944;28;20229;-78
2022/12/15 07:48:26;;;;;;;58.40;24.17;;;;;;;-145.69;100.00;52721.66;5094410;28;20204;-78
2022/12/15 07:50:56;;;;;;;54.80;22.40;;;;;;;-145.69;100.00;52737.50;5094590;28;20704;-79
2022/12/15 07:53:24;;;;;;;48.53;20.47;;;;;;;-145.69;100.00;52715.72;5094647;28;20198;-79
2022/12/15 07:55:54;;;;;;;45.97;18.77;;;;;;;-145.69;100.00;52723.63;5094681;28;20284;-79
2022/12/15 07:58:21;;;;;;;55.27;21.67;;;;;;;-145.69;100.00;52735.50;5094244;28;20561;-79
2022/12/15 08:00:47;;;;;;;47.00;22.03;;;;;;;-145.69;100.00;52757.31;5094548;28;20198;-79
2022/12/15 08:03:14;;;;;;;50.23;19.67;;;;;;;-145.69;100.00;52753.34;5094400;28;20198;-79
2022/12/15 08:05:41;;;;;;;47.33;22.30;;;;;;;-145.69;100.00;52727.59;5094469;28;20293;-78
2022/12/15 08:08:10;;;;;;;51.60;21.77;;;;;;;-145.69;100.00;52775.13;5087321;28;20202;-79
2022/12/15 08:10:39;;;;;;;47.63;20.60;;;;;;;-145.69;100.00;52717.69;5093776;28;20218;-79
2022/12/15 08:13:05;;;;;;;46.93;20.57;;;;;;;-145.69;100.00;52751.34;5094300;28;20202;-79
2022/12/15 08:15:35;;;;;;;41.60;19.27;;;;;;;-145.69;100.00;52771.16;5094262;28;20213;-79
2022/12/15 08:18:01;;;;;;;46.13;22.13;;;;;;;-145.69;100.00;52757.31;5094123;28;20208;-79
2022/12/15 08:20:29;;;;;;;48.30;21.93;;;;;;;-145.69;100.00;52765.22;5094165;28;20202;-79
2022/12/15 08:22:55;;;;;;;47.07;21.83;;;;;;;-145.69;100.00;52781.06;5094337;28;20208;-79
2022/12/15 08:25:24;;;;;;;47.80;19.73;;;;;;;-145.69;100.00;52747.41;5094150;28;20212;-78
2022/12/15 08:27:51;;;;;;;47.37;19.40;;;;;;;-145.69;100.00;52757.31;5093807;28;20197;-77
2022/12/15 08:30:18;;;;;;;44.20;19.77;;;;;;;-145.69;100.00;52755.31;5093605;28;20232;-78
2022/12/15 08:32:45;;;;;;;43.97;19.40;;;;;;;-145.69;100.00;52737.50;5093622;28;20198;-79
2022/12/15 08:35:12;;;;;;;39.30;19.20;;;;;;;-145.69;100.00;52727.59;5093674;28;20649;-78
2022/12/15 08:37:38;;;;;;;47.37;19.93;;;;;;;-145.69;100.00;52737.50;5093698;28;20238;-77
2022/12/15 08:40:06;;;;;;;47.83;21.10;;;;;;;-145.69;100.00;52747.41;5093281;28;20202;-77
2022/12/15 08:42:34;;;;;;;50.47;21.13;;;;;;;-145.69;100.00;52735.50;5093590;28;20289;-83
2022/12/15 08:45:01;;;;;;;46.53;20.77;;;;;;;-145.69;100.00;52711.75;5093615;28;20198;-80
2022/12/15 08:47:28;;;;;;;46.90;20.83;;;;;;;-145.69;100.00;52725.63;5093466;28;20282;-79
2022/12/15 08:49:54;;;;;;;50.73;21.27;;;;;;;-145.69;100.00;52759.28;5093741;28;20208;-78
2022/12/15 08:52:21;;;;;;;49.00;20.93;;;;;;;-145.69;100.00;52735.50;5093667;28;20198;-78
2022/12/15 08:54:47;;;;;;;43.97;19.67;;;;;;;-145.69;100.00;52737.50;5093571;28;20560;-78
2022/12/15 08:57:14;;;;;;;48.17;20.50;;;;;;;-145.69;100.00;52737.50;5092807;28;20193;-79
2022/12/15 08:59:42;;;;;;;43.77;19.77;;;;;;;-145.69;100.00;52733.53;5093494;28;20198;-78
2022/12/15 09:02:11;;;;;;;46.03;20.17;;;;;;;-145.69;100.00;52787.00;5092935;28;20281;-78
2022/12/15 09:04:39;;;;;;;53.07;21.40;;;;;;;-145.69;100.00;52717.69;5093025;28;20683;-78
2022/12/15 09:07:06;;;;;;;46.77;20.90;;;;;;;-145.69;100.00;52741.47;5092938;28;20657;-78
2022/12/15 09:09:33;;;;;;;41.93;18.80;;;;;;;-145.69;100.00;52719.66;5092251;28;20195;-77
2022/12/15 09:11:59;;;;;;;42.73;20.27;;;;;;;-145.69;100.00;52697.88;5092824;28;20226;-77
2022/12/15 09:14:26;;;;;;;49.73;20.80;;;;;;;-145.69;100.00;52743.44;5093336;28;20208;-77
2022/12/15 09:16:54;;;;;;;47.97;20.33;;;;;;;-145.69;100.00;52721.66;5093025;28;20553;-77
2022/12/15 09:19:20;;;;;;;53.47;21.83;;;;;;;-145.69;100.00;52721.66;5092449;28;20280;-77
2022/12/15 09:21:48;;;;;;;53.30;22.90;;;;;;;-145.69;100.00;52741.47;5092741;28;20204;-77
2022/12/15 09:24:14;;;;;;;47.93;21.07;;;;;;;-145.69;100.00;52761.25;5089017;28;20194;-77
2022/12/15 09:26:43;;;;;;;43.17;20.03;;;;;;;-145.69;100.00;52709.78;5092971;28;20237;-77
2022/12/15 09:29:12;;;;;;;44.57;19.83;;;;;;;-145.69;100.00;52737.50;5092500;28;20679;-77
2022/12/15 09:31:39;;;;;;;41.97;18.47;;;;;;;-145.69;100.00;52723.63;5093103;28;20229;-77
2022/12/15 09:34:07;;;;;;;39.07;18.37;;;;;;;-145.69;100.00;52729.56;5093035;28;20198;-77
2022/12/15 09:36:34;;;;;;;42.33;19.43;;;;;;;-145.69;100.00;52745.41;5093087;28;20251;-78
2022/12/15 09:39:01;;;;;;;45.80;18.43;;;;;;;-145.69;100.00;52719.66;5092397;28;20229;-79
2022/12/15 09:41:30;;;;;;;38.67;17.80;;;;;;;-145.69;100.00;52729.56;5093114;28;20202;-78
2022/12/15 09:44:00;;;;;;;41.33;19.77;;;;;;;-145.69;100.00;52731.56;5092568;28;20272;-77
2022/12/15 09:46:36;;;;;;;46.70;20.57;;;;;;;-145.69;100.00;52741.47;5092762;28;20205;-77
2022/12/15 09:49:06;;;;;;;43.23;20.13;;;;;;;-145.69;100.00;52729.56;5092594;28;20557;-77
2022/12/15 09:51:44;;;;;;;43.73;21.13;;;;;;;-145.69;100.00;52701.84;5092471;28;20229;-77
2022/12/15 09:54:11;;;;;;;45.83;21.13;;;;;;;-145.69;100.00;52705.81;5093091;28;20249;-78
2022/12/15 09:56:42;;;;;;;53.63;23.10;;;;;;;-145.69;100.00;52783.06;5091949;28;20564;-77
2022/12/15 09:59:24;;;;;;;52.90;23.33;;;;;;;-145.69;100.00;52729.56;5088473;28;20198;-77
2022/12/15 10:02:00;;;;;;;59.27;23.27;;;;;;;-145.69;100.00;52715.72;5092838;28;20204;-77
2022/12/15 10:04:37;;;;;;;58.40;23.87;;;;;;;-145.69;100.00;52777.09;5092690;28;20201;-76
2022/12/15 10:07:14;;;;;;;52.10;22.20;;;;;;;-145.69;100.00;52713.72;5092811;28;20233;-76
2022/12/15 10:09:40;;;;;;;48.47;21.27;;;;;;;-145.69;100.00;52711.75;5091038;28;20205;-77
2022/12/15 10:12:13;;;;;;;46.40;21.83;;;;;;;-145.69;100.00;52719.66;5090132;28;20249;-77
2022/12/15 10:14:43;;;;;;;52.43;21.37;;;;;;;-145.69;100.00;52721.66;5090595;28;20198;-77
2022/12/15 10:17:20;;;;;;;46.30;21.57;;;;;;;-145.69;100.00;52761.25;5090839;28;20198;-77
2022/12/15 10:19:54;;;;;;;55.53;23.50;;;;;;;-145.69;100.00;52767.19;5090268;28;20202;-76
2022/12/15 10:22:24;;;;;;;57.47;23.03;;;;;;;-145.69;100.00;52695.91;5092580;28;20232;-77
2022/12/15 10:24:52;;;;;;;61.73;24.03;;;;;;;-145.69;100.00;52721.66;5095145;28;20259;-76
2022/12/15 10:27:29;;;;;;;58.00;24.57;;;;;;;-145.69;100.00;52735.50;5096440;28;20572;-77
2022/12/15 10:30:01;;;;;;;52.63;22.60;;;;;;;-145.69;100.00;52713.72;5095556;28;20194;-77
2022/12/15 10:32:38;;;;;;;53.67;24.37;;;;;;;-145.69;100.00;52735.50;5096290;28;20316;-77
2022/12/15 10:35:08;;;;;;;54.27;24.67;;;;;;;-145.69;100.00;52719.66;5095994;28;20198;-77
2022/12/15 10:37:36;;;;;;;56.80;23.27;;;;;;;-145.69;100.00;52749.38;5096157;28;20208;-77
2022/12/15 10:40:03;;;;;;;52.03;22.73;;;;;;;-145.69;100.00;52743.44;5095151;28;20244;-77
2022/12/15 10:42:30;;;;;;;54.97;23.77;;;;;;;-145.69;100.00;52739.47;5095921;28;20198;-76
2022/12/15 10:44:57;;;;;;;58.20;23.67;;;;;;;-145.69;100.00;52751.34;5096179;28;20204;-77
2022/12/15 10:47:26;;;;;;;63.47;25.30;;;;;;;-145.69;100.00;52707.78;5095262;28;20201;-77
2022/12/15 10:49:54;;;;;;;58.10;25.10;;;;;;;-145.69;100.00;52749.38;5094272;28;20198;-76
2022/12/15 10:52:26;;;;;;;67.27;26.27;;;;;;;-145.69;100.00;52759.28;5095784;28;20232;-76
2022/12/15 10:54:55;;;;;;;61.83;25.77;;;;;;;-145.69;100.00;52741.47;5095983;28;20588;-77
2022/12/15 10:57:27;;;;;;;74.67;26.77;;;;;;;-145.69;100.00;52739.47;5095776;28;20652;-77
2022/12/15 10:59:54;;;;;;;73.80;27.90;;;;;;;-145.69;100.00;52747.41;5095584;28;20198;-77
2022/12/15 11:02:35;;;;;;;70.47;28.30;;;;;;;-145.69;100.00;52686.00;5094956;28;20190;-77
2022/12/15 11:05:03;;;;;;;67.87;27.50;;;;;;;-145.69;100.00;52741.47;5095900;28;20209;-76
2022/12/15 11:07:35;;;;;;;68.73;27.23;;;;;;;-145.69;100.00;52719.66;5095159;28;20190;-76
2022/12/15 11:10:15;;;;;;;62.77;25.87;;;;;;;-145.69;100.00;52717.69;5095267;28;20194;-77
2022/12/15 11:12:50;;;;;;;64.23;26.63;;;;;;;-145.69;100.00;52709.78;5095454;28;20696;-76
2022/12/15 11:15:39;;;;;;;68.57;27.13;;;;;;;-145.69;100.00;52715.72;5095704;28;20202;-77
2022/12/15 11:18:14;;;;;;;68.90;26.60;;;;;;;-145.69;100.00;52693.94;5095668;28;20665;-77
2022/12/15 11:20:45;;;;;;;65.00;25.83;;;;;;;-145.69;100.00;52763.25;5094787;28;20280;-77
2022/12/15 11:23:18;;;;;;;63.37;26.10;;;;;;;-145.69;100.00;52717.69;5095036;28;20225;-77
2022/12/15 11:25:51;;;;;;;63.50;26.30;;;;;;;-145.69;100.00;52733.53;5095467;28;20568;-76
2022/12/15 11:28:22;;;;;;;56.97;23.70;;;;;;;-145.69;100.00;52715.72;5095208;28;20767;-77
2022/12/15 11:30:56;;;;;;;64.80;26.83;;;;;;;-145.69;100.00;52733.53;5095012;28;20664;-76
2022/12/15 11:33:23;;;;;;;68.57;28.27;;;;;;;-145.69;100.00;52725.63;5094373;28;20647;-76
2022/12/15 11:36:06;;;;;;;74.10;28.43;;;;;;;-145.69;100.00;52749.38;5094764;28;20245;-76
2022/12/15 11:38:42;;;;;;;75.67;28.03;;;;;;;-145.69;100.00;52725.63;5095151;28;20194;-77
2022/12/15 11:41:22;;;;;;;66.70;26.10;;;;;;;-145.69;100.00;52695.91;5095184;28;20198;-77
2022/12/15 11:44:02;;;;;;;77.23;29.23;;;;;;;-145.69;100.00;52757.31;5094588;28;20671;-77
2022/12/15 11:46:36;;;;;;;74.50;30.10;;;;;;;-145.69;100.00;52703.81;5094623;28;20208;-77
2022/12/15 11:49:26;;;;;;;74.97;30.77;;;;;;;-145.69;100.00;52699.88;5092158;28;20196;-76
2022/12/15 11:52:00;;;;;;;75.53;29.83;;;;;;;-145.69;100.00;52717.69;5074581;28;20227;-76
2022/12/15 11:54:30;;;;;;;74.70;30.13;;;;;;;-145.69;100.00;52743.44;5092966;28;20202;-77
2022/12/15 11:57:09;;;;;;;72.17;28.80;;;;;;;-145.69;100.00;52701.84;5094941;28;20198;-77
2022/12/15 11:59:51;;;;;;;64.57;27.73;;;;;;;-145.69;100.00;52729.56;5094882;28;20213;-77
2022/12/15 12:02:43;;;;;;;62.90;26.27;;;;;;;-145.69;100.00;52723.63;5094741;28;20201;-77
2022/12/15 12:05:54;;;;;;;68.20;26.97;;;;;;;-145.69;100.00;52715.72;5094271;28;20288;-77
2022/12/15 12:08:35;;;;;;;64.30;26.23;;;;;;;-145.69;100.00;52729.56;5051909;28;20199;-77
2022/12/15 12:11:11;;;;;;;64.50;25.43;;;;;;;-145.69;100.00;52733.53;5092822;28;20657;-76
2022/12/15 12:13:52;;;;;;;65.43;26.20;;;;;;;-145.69;100.00;52707.78;5094258;28;20212;-77
2022/12/15 12:16:30;;;;;;;65.73;27.63;;;;;;;-145.69;100.00;52705.81;5093991;28;20190;-77
2022/12/15 12:19:02;;;;;;;66.93;27.60;;;;;;;-145.69;100.00;52751.34;5094269;28;20197;-77
2022/12/15 12:21:33;;;;;;;69.73;27.70;;;;;;;-145.69;100.00;52715.72;5094065;28;20208;-77
2022/12/15 12:24:03;;;;;;;72.80;28.37;;;;;;;-145.69;100.00;52709.78;5094123;28;20197;-77
2022/12/15 12:26:37;;;;;;;67.33;28.37;;;;;;;-145.69;100.00;52703.81;5094096;28;20197;-77
2022/12/15 12:29:14;;;;;;;75.10;27.90;;;;;;;-145.69;100.00;52741.47;5094268;28;20546;-77
2022/12/15 12:31:50;;;;;;;72.57;28.57;;;;;;;-145.69;100.00;52769.19;5093809;28;20703;-77
2022/12/15 12:34:26;;;;;;;69.27;27.77;;;;;;;-145.69;100.00;52725.63;5093660;28;20660;-77
2022/12/15 12:36:57;;;;;;;70.30;27.07;;;;;;;-145.69;100.00;52743.44;5093924;28;20237;-77
2022/12/15 12:39:25;;;;;;;74.20;29.07;;;;;;;-145.69;100.00;52737.50;5093956;28;20293;-78
2022/12/15 12:42:00;;;;;;;66.90;26.87;;;;;;;-145.69;100.00;52725.63;5093764;28;20202;-78
2022/12/15 12:44:32;;;;;;;67.87;26.90;;;;;;;-145.69;100.00;52729.56;5092795;28;20201;-78
2022/12/15 12:47:10;;;;;;;67.87;28.83;;;;;;;-145.69;100.00;52725.63;5093591;28;20252;-78
2022/12/15 12:49:41;;;;;;;64.77;27.20;;;;;;;-145.69;100.00;52733.53;5093666;28;20725;-78
2022/12/15 12:52:19;;;;;;;80.22;32.53;;;;;;;-145.69;100.00;52723.63;5093320;28;20894;-78
2022/12/15 12:54:56;;;;;;;70.63;28.13;;;;;;;-145.69;100.00;52705.81;5093318;28;20661;-78
2022/12/15 12:57:36;;;;;;;65.77;26.97;;;;;;;-145.69;100.00;52686.00;5093840;28;20255;-78
2022/12/15 13:00:14;;;;;;;66.57;26.63;;;;;;;-145.69;100.00;52691.94;5093568;28;20229;-79
2022/12/15 13:02:53;;;;;;;65.83;26.90;;;;;;;-145.69;100.00;52721.66;5093623;28;20227;-79
2022/12/15 13:05:38;;;;;;;70.67;28.63;;;;;;;-145.69;100.00;52733.53;5093651;28;20189;-78
2022/12/15 13:08:26;;;;;;;71.97;28.07;;;;;;;-145.69;100.00;52701.84;5093617;28;20200;-78
2022/12/15 13:10:55;;;;;;;72.10;27.93;;;;;;;-145.69;100.00;52705.81;5093495;28;20198;-78
2022/12/15 13:13:43;;;;;;;73.33;28.67;;;;;;;-145.69;100.00;52701.84;5092578;28;20687;-78
2022/12/15 13:16:20;;;;;;;71.57;28.77;;;;;;;-145.69;100.00;52697.88;5093119;28;20233;-78
2022/12/15 13:19:02;;;;;;;80.43;31.90;;;;;;;-145.69;100.00;52729.56;5092879;28;20273;-78
2022/12/15 13:21:52;;;;;;;73.80;29.83;;;;;;;-145.69;100.00;52745.41;5093218;28;20217;-78
2022/12/15 13:24:27;;;;;;;75.53;29.60;;;;;;;-145.69;100.00;52721.66;5092981;28;20551;-78
2022/12/15 13:27:04;;;;;;;73.50;28.43;;;;;;;-145.69;100.00;52717.69;5093239;28;20212;-78